Aérodrome :
LOGIN :

S'inscrire | Disclaimer

   EN    FR    IT 

 










Légende :    VFR   VFR Marginal   IFR   IFR Intensif   IFR Très Intensif
Visi : 
Plafond : 
>= 8 km
>= 3000ft
5 à 8 km
1000 à 3000 ft
1500m à 5 km
500 à 1000 ft
800 à 1500m
200 à 500 ft
< 800m
< 200 ft
Symboles :   Orages  Brouillard  Fortes neiges  Fortes précipitations  Vent > 20 kt
SIGMETs :   Divers  Orages  Givrage  Turbulence  Onde Orograph.  Cendres Volcan.






- Altitude de l'aérodrome : 404 ft
- Code IATA : WRO


EPWR - Wroclaw

DERNIER METAR :
  • 121230Z 11005KT 060V160 CAVOK 28/13 Q1020

METARs EXPIRÉS :
  • 121200Z 15005KT 100V190 CAVOK 27/13 Q1020
  • 121130Z 13006KT 360V160 CAVOK 27/13 Q1020
  • 121100Z 07005KT 030V120 CAVOK 27/15 Q1020
  • 121030Z 08006KT 010V150 CAVOK 27/14 Q1020
  • 121000Z 09006KT 020V160 CAVOK 26/14 Q1021

TAF TAF EPWR
Valide du 12 à 12h jusqu'au 13 à 12h UTC


121130Z 1212/1312 10007KT CAVOK



MET'MAP, la Météo Aéronautique d'un coup d'oeil ! - Copyright ORBIFLY Décembre 2007 - Disclaimer

ORBIFLY MET'MAP TEAM :

Programmation & Développement : Alexandra Zaïnal
Sur une idée originale de : Baudouin d'Aumeries
Assistance à la programmation : Marc-Olivier Méhu
Soutien technique & logistique : Manuel Goepfert

Contact : metmap@orbifly.com




SOURCES & CREDITS :

   NOAA